createdAt,value
2023-05-21T00:01:45.623Z,24.90
2023-05-21T00:04:15.479Z,24.90
2023-05-21T00:06:44.639Z,24.90
2023-05-21T00:09:13.590Z,24.90
2023-05-21T00:11:41.339Z,24.90
2023-05-21T00:14:09.112Z,24.90
2023-05-21T00:16:36.926Z,24.90
2023-05-21T00:19:04.740Z,24.90
2023-05-21T00:21:33.213Z,24.90
2023-05-21T00:24:02.296Z,24.90
2023-05-21T00:26:30.153Z,24.90
2023-05-21T00:28:58.546Z,24.90
2023-05-21T00:31:26.329Z,24.90
2023-05-21T00:33:54.332Z,24.90
2023-05-21T00:36:23.624Z,24.90
2023-05-21T00:38:52.132Z,24.90
2023-05-21T00:41:22.867Z,24.90
2023-05-21T00:43:50.854Z,24.90
2023-05-21T00:46:20.859Z,24.90
2023-05-21T00:48:50.417Z,24.90
2023-05-21T00:51:21.454Z,24.90
2023-05-21T00:53:51.307Z,24.90
2023-05-21T00:56:21.820Z,24.90
2023-05-21T00:58:51.697Z,24.90
2023-05-21T01:01:19.766Z,24.90
2023-05-21T01:03:48.640Z,24.90
2023-05-21T01:06:16.957Z,24.90
2023-05-21T01:08:45.413Z,24.90
2023-05-21T01:11:14.887Z,24.90
2023-05-21T01:13:44.560Z,24.90
2023-05-21T01:16:13.493Z,24.90
2023-05-21T01:18:45.122Z,24.90
2023-05-21T01:21:17.351Z,24.90
2023-05-21T01:23:46.652Z,24.90
2023-05-21T01:26:14.380Z,24.90
2023-05-21T01:28:42.132Z,24.90
2023-05-21T01:31:21.945Z,24.90
2023-05-21T01:33:52.938Z,24.90
2023-05-21T01:36:26.165Z,24.90
2023-05-21T01:39:01.252Z,24.90
2023-05-21T01:41:33.069Z,24.90
2023-05-21T01:44:01.903Z,24.90
2023-05-21T01:46:32.325Z,24.90
2023-05-21T01:49:00.589Z,24.90
2023-05-21T01:51:28.837Z,24.90
2023-05-21T01:53:57.956Z,24.90
2023-05-21T01:56:25.748Z,24.90
2023-05-21T01:58:53.734Z,24.90
2023-05-21T02:01:21.538Z,24.90
2023-05-21T02:03:49.410Z,24.90
2023-05-21T02:06:17.304Z,24.80
2023-05-21T02:08:45.525Z,24.90
2023-05-21T02:11:14.709Z,24.90
2023-05-21T02:13:43.429Z,24.90
2023-05-21T02:16:11.752Z,24.80
2023-05-21T02:18:42.072Z,24.90
2023-05-21T02:21:09.998Z,24.80
2023-05-21T02:23:38.040Z,24.90
2023-05-21T02:26:06.025Z,24.90
2023-05-21T02:28:36.116Z,24.80
2023-05-21T02:31:03.900Z,24.80
2023-05-21T02:33:32.019Z,24.80
2023-05-21T02:36:00.040Z,24.90
2023-05-21T02:38:27.905Z,24.80
2023-05-21T02:40:55.676Z,24.90
2023-05-21T02:43:23.469Z,24.80
2023-05-21T02:45:52.588Z,24.80
2023-05-21T02:48:21.262Z,24.80
2023-05-21T02:50:49.071Z,24.80
2023-05-21T02:53:17.243Z,24.80
2023-05-21T02:55:45.044Z,24.90
2023-05-21T02:58:14.917Z,24.90
2023-05-21T03:00:42.982Z,24.80
2023-05-21T03:03:12.679Z,24.80
2023-05-21T03:05:41.243Z,24.80
2023-05-21T03:08:09.006Z,24.80
2023-05-21T03:10:36.765Z,24.80
2023-05-21T03:13:08.911Z,24.90
2023-05-21T03:15:39.076Z,24.80
2023-05-21T03:18:07.297Z,24.80
2023-05-21T03:20:37.225Z,24.80
2023-05-21T03:23:05.282Z,24.80
2023-05-21T03:25:33.142Z,24.80
2023-05-21T03:28:01.079Z,24.80
2023-05-21T03:30:46.269Z,24.80
2023-05-21T03:33:32.640Z,24.80
2023-05-21T03:36:03.397Z,24.80
2023-05-21T03:38:37.097Z,24.80
2023-05-21T03:41:05.779Z,24.80
2023-05-21T03:43:33.825Z,24.90
2023-05-21T03:46:01.633Z,24.80
2023-05-21T03:48:47.264Z,24.80
2023-05-21T03:51:20.296Z,24.80
2023-05-21T03:53:48.179Z,24.80
2023-05-21T03:56:16.074Z,24.80
2023-05-21T03:58:43.885Z,24.80
2023-05-21T04:01:12.331Z,24.80
2023-05-21T04:03:41.085Z,24.80
2023-05-21T04:06:10.515Z,24.80
2023-05-21T04:08:41.322Z,24.80
2023-05-21T04:11:09.956Z,24.90
2023-05-21T04:13:37.736Z,24.80
2023-05-21T04:16:08.676Z,24.80
2023-05-21T04:18:36.628Z,24.80
2023-05-21T04:21:04.977Z,24.80
2023-05-21T04:23:33.364Z,24.80
2023-05-21T04:26:08.486Z,24.80
2023-05-21T04:28:36.353Z,24.80
2023-05-21T04:31:05.726Z,24.80
2023-05-21T04:33:33.630Z,24.80
2023-05-21T04:36:01.932Z,24.80
2023-05-21T04:38:30.132Z,24.80
2023-05-21T04:40:58.688Z,24.80
2023-05-21T04:43:28.102Z,24.80
2023-05-21T04:45:58.428Z,24.80
2023-05-21T04:48:26.712Z,24.80
2023-05-21T04:50:56.067Z,24.80
2023-05-21T04:53:25.846Z,24.80
2023-05-21T04:55:53.720Z,24.80
2023-05-21T04:58:21.608Z,24.80
2023-05-21T05:00:51.864Z,24.80
2023-05-21T05:03:19.825Z,24.80
2023-05-21T05:05:48.333Z,24.80
2023-05-21T05:08:16.300Z,24.80
2023-05-21T05:10:44.705Z,24.80
2023-05-21T05:13:12.549Z,24.80
2023-05-21T05:15:40.353Z,24.80
2023-05-21T05:18:09.537Z,24.90
2023-05-21T05:20:37.424Z,24.90
2023-05-21T05:23:06.448Z,24.90
2023-05-21T05:25:34.210Z,24.90
2023-05-21T05:28:02.001Z,24.90
2023-05-21T05:30:29.777Z,24.90
2023-05-21T05:33:05.562Z,24.90
2023-05-21T05:35:34.829Z,24.90
2023-05-21T05:38:02.789Z,25.00
2023-05-21T05:40:30.577Z,25.00
2023-05-21T05:42:58.384Z,25.00
2023-05-21T05:45:26.691Z,25.00
2023-05-21T05:47:54.688Z,25.00
2023-05-21T05:50:22.772Z,25.00
2023-05-21T05:52:52.257Z,25.00
2023-05-21T05:55:20.062Z,25.00
2023-05-21T05:57:47.830Z,25.00
2023-05-21T06:00:18.476Z,25.00
2023-05-21T06:02:49.396Z,24.90
2023-05-21T06:05:17.398Z,24.90
2023-05-21T06:07:45.613Z,24.90
2023-05-21T06:10:14.701Z,24.90
2023-05-21T06:12:42.514Z,24.90
2023-05-21T06:15:10.976Z,24.90
2023-05-21T06:17:38.957Z,24.90
2023-05-21T06:20:09.342Z,24.90
2023-05-21T06:22:37.748Z,24.90
2023-05-21T06:25:10.497Z,24.90
2023-05-21T06:27:39.845Z,24.90
2023-05-21T06:30:14.862Z,24.90
2023-05-21T06:32:43.678Z,24.90
2023-05-21T06:35:11.512Z,24.90
2023-05-21T06:37:40.089Z,24.90
2023-05-21T06:40:09.573Z,24.90
2023-05-21T06:42:39.501Z,24.90
2023-05-21T06:45:25.922Z,25.00
2023-05-21T06:47:58.949Z,25.00
2023-05-21T06:50:27.795Z,25.00
2023-05-21T06:52:55.736Z,25.00
2023-05-21T06:55:23.701Z,25.00
2023-05-21T06:58:14.976Z,25.00
2023-05-21T07:00:42.847Z,25.00
2023-05-21T07:03:11.434Z,25.00
2023-05-21T07:05:39.659Z,25.00
2023-05-21T07:08:08.551Z,25.00
2023-05-21T07:10:36.366Z,25.00
2023-05-21T07:13:04.101Z,25.00
2023-05-21T07:15:33.247Z,25.00
2023-05-21T07:18:03.432Z,25.00
2023-05-21T07:20:31.340Z,25.00
2023-05-21T07:23:03.349Z,25.10
2023-05-21T07:25:31.809Z,25.10
2023-05-21T07:27:59.826Z,25.10
2023-05-21T07:30:27.748Z,25.10
2023-05-21T07:32:56.993Z,25.10
2023-05-21T07:35:25.074Z,25.10
2023-05-21T07:37:53.000Z,25.10
2023-05-21T07:40:20.782Z,25.10
2023-05-21T07:42:48.698Z,25.10
2023-05-21T07:45:19.697Z,25.10
2023-05-21T07:47:47.544Z,25.10
2023-05-21T07:50:17.177Z,25.10
2023-05-21T07:52:45.193Z,25.10
2023-05-21T07:55:13.222Z,25.10
2023-05-21T07:57:42.599Z,25.10
2023-05-21T08:00:14.932Z,25.10
2023-05-21T08:02:53.161Z,25.10
2023-05-21T08:05:24.309Z,25.10
2023-05-21T08:07:52.218Z,25.10
2023-05-21T08:10:20.729Z,25.10
2023-05-21T08:12:51.192Z,25.10
2023-05-21T08:15:19.443Z,25.10
2023-05-21T08:17:47.241Z,25.20
2023-05-21T08:20:15.763Z,25.20
2023-05-21T08:22:48.236Z,25.10
2023-05-21T08:25:16.174Z,25.20
2023-05-21T08:27:44.668Z,25.20
2023-05-21T08:30:13.145Z,25.20
2023-05-21T08:32:41.234Z,25.20
2023-05-21T08:35:09.909Z,25.20
2023-05-21T08:37:51.240Z,25.20
2023-05-21T08:40:27.384Z,25.20
2023-05-21T08:42:55.164Z,25.20
2023-05-21T08:45:42.861Z,25.20
2023-05-21T08:48:13.087Z,25.20
2023-05-21T08:50:42.442Z,25.20
2023-05-21T08:53:28.111Z,25.20
2023-05-21T08:55:58.276Z,25.20
2023-05-21T08:58:37.548Z,25.20
2023-05-21T09:01:06.391Z,25.20
2023-05-21T09:03:39.305Z,25.20
2023-05-21T09:06:09.173Z,25.20
2023-05-21T09:08:43.372Z,25.20
2023-05-21T09:11:34.102Z,25.20
2023-05-21T09:14:03.236Z,25.20
2023-05-21T09:16:43.110Z,25.20
2023-05-21T09:19:11.319Z,25.30
2023-05-21T09:21:40.490Z,25.30
2023-05-21T09:24:16.001Z,25.30
2023-05-21T09:26:44.798Z,25.30
2023-05-21T09:29:14.458Z,25.30
2023-05-21T09:31:45.588Z,25.30
2023-05-21T09:34:14.938Z,25.30
2023-05-21T09:36:44.695Z,25.30
2023-05-21T09:39:16.396Z,25.30
2023-05-21T09:41:46.164Z,25.30
2023-05-21T09:44:15.360Z,25.30
2023-05-21T09:46:43.226Z,25.30
2023-05-21T09:49:24.639Z,25.30
2023-05-21T09:51:56.436Z,25.30
2023-05-21T09:54:24.294Z,25.30
2023-05-21T09:56:53.894Z,25.40
2023-05-21T09:59:22.284Z,25.40
2023-05-21T10:01:53.089Z,25.40
2023-05-21T10:04:22.409Z,25.40
2023-05-21T10:06:51.778Z,25.40
2023-05-21T10:09:20.722Z,25.40
2023-05-21T10:11:54.044Z,25.40
2023-05-21T10:14:26.284Z,25.40
2023-05-21T10:16:56.747Z,25.40
2023-05-21T10:19:26.079Z,25.40
2023-05-21T10:21:57.051Z,25.40
2023-05-21T10:24:25.868Z,25.40
2023-05-21T10:26:53.890Z,25.40
2023-05-21T10:29:24.355Z,25.40
2023-05-21T10:31:53.884Z,25.40
2023-05-21T10:34:24.248Z,25.40
2023-05-21T10:36:53.476Z,25.40
2023-05-21T10:39:25.259Z,25.40
2023-05-21T10:42:03.094Z,25.40
2023-05-21T10:44:43.205Z,25.40
2023-05-21T10:47:38.410Z,25.40
2023-05-21T10:50:37.847Z,25.40
2023-05-21T10:53:14.594Z,25.40
2023-05-21T10:55:58.329Z,25.50
2023-05-21T10:58:52.645Z,25.50
2023-05-21T11:01:21.831Z,25.50
2023-05-21T11:03:50.345Z,25.50
2023-05-21T11:06:25.036Z,25.50
2023-05-21T11:08:55.320Z,25.50
2023-05-21T11:11:43.797Z,25.50
2023-05-21T11:14:36.074Z,25.50
2023-05-21T11:17:11.389Z,25.50
2023-05-21T11:19:43.235Z,25.50
2023-05-21T11:22:22.299Z,25.50
2023-05-21T11:24:51.423Z,25.50
2023-05-21T11:27:34.145Z,25.50
2023-05-21T11:30:05.380Z,25.50
2023-05-21T11:32:38.690Z,25.50
2023-05-21T11:35:07.643Z,25.50
2023-05-21T11:37:37.031Z,25.50
2023-05-21T11:40:28.200Z,25.50
2023-05-21T11:42:57.332Z,25.50
2023-05-21T11:45:29.328Z,25.50
2023-05-21T11:47:58.842Z,25.50
2023-05-21T11:50:27.259Z,25.50
2023-05-21T11:52:55.039Z,25.60
2023-05-21T11:55:23.281Z,25.60
2023-05-21T11:57:54.471Z,25.60
2023-05-21T12:00:23.014Z,25.60
2023-05-21T12:02:52.845Z,25.60
2023-05-21T12:05:23.211Z,25.60
2023-05-21T12:07:51.173Z,25.60
2023-05-21T12:10:22.567Z,25.60
2023-05-21T12:12:56.564Z,25.60
2023-05-21T12:15:25.997Z,25.60
2023-05-21T12:17:54.187Z,25.60
2023-05-21T12:20:23.791Z,25.70
2023-05-21T12:22:51.652Z,25.70
2023-05-21T12:25:20.978Z,25.70
2023-05-21T12:27:50.212Z,25.70
2023-05-21T12:30:18.155Z,25.70
2023-05-21T12:32:45.944Z,25.70
2023-05-21T12:35:24.044Z,25.70
2023-05-21T12:37:52.598Z,25.70
2023-05-21T12:40:21.225Z,25.70
2023-05-21T12:42:49.276Z,25.70
2023-05-21T12:45:18.670Z,25.70
2023-05-21T12:47:55.710Z,25.70
2023-05-21T12:50:25.035Z,25.70
2023-05-21T12:52:56.249Z,25.70
2023-05-21T12:55:25.543Z,25.70
2023-05-21T12:58:03.088Z,25.70
2023-05-21T13:00:31.000Z,25.70
2023-05-21T13:03:00.097Z,25.70
2023-05-21T13:05:29.353Z,25.70
2023-05-21T13:07:57.078Z,25.70
2023-05-21T13:10:24.980Z,25.80
2023-05-21T13:12:52.764Z,25.80
2023-05-21T13:15:21.255Z,25.80
2023-05-21T13:17:50.429Z,25.80
2023-05-21T13:20:21.540Z,25.80
2023-05-21T13:22:52.579Z,25.80
2023-05-21T13:25:21.765Z,25.80
2023-05-21T13:27:50.524Z,25.80
2023-05-21T13:30:18.721Z,25.80
2023-05-21T13:32:46.861Z,25.80
2023-05-21T13:35:16.299Z,25.80
2023-05-21T13:37:44.306Z,25.70
2023-05-21T13:40:15.667Z,25.80
2023-05-21T13:42:44.334Z,25.70
2023-05-21T13:45:13.942Z,25.70
2023-05-21T13:47:43.175Z,25.70
2023-05-21T13:50:11.730Z,25.70
2023-05-21T13:52:39.876Z,25.70
2023-05-21T13:55:08.366Z,25.70
2023-05-21T13:57:37.478Z,25.70
2023-05-21T14:00:06.469Z,25.70
2023-05-21T14:02:35.472Z,25.70
2023-05-21T14:05:03.343Z,25.70
2023-05-21T14:07:31.198Z,25.70
2023-05-21T14:09:59.005Z,25.70
2023-05-21T14:12:28.365Z,25.70
2023-05-21T14:14:57.470Z,25.70
2023-05-21T14:17:25.246Z,25.70
2023-05-21T14:19:53.007Z,25.70
2023-05-21T14:22:20.819Z,25.70
2023-05-21T14:24:48.690Z,25.70
2023-05-21T14:27:16.825Z,25.70
2023-05-21T14:29:44.598Z,25.70
2023-05-21T14:32:13.788Z,25.60
2023-05-21T14:34:41.620Z,25.60
2023-05-21T14:37:09.400Z,25.60
2023-05-21T14:39:37.253Z,25.60
2023-05-21T14:42:05.856Z,25.60
2023-05-21T14:44:33.613Z,25.60
2023-05-21T14:47:01.420Z,25.60
2023-05-21T14:49:30.489Z,25.60
2023-05-21T14:51:58.232Z,25.60
2023-05-21T14:54:25.997Z,25.60
2023-05-21T14:56:54.134Z,25.60
2023-05-21T14:59:21.973Z,25.60
2023-05-21T15:01:49.827Z,25.60
2023-05-21T15:04:17.654Z,25.60
2023-05-21T15:06:46.732Z,25.60
2023-05-21T15:09:14.463Z,25.60
2023-05-21T15:11:43.824Z,25.60
2023-05-21T15:14:11.631Z,25.60
2023-05-21T15:16:39.826Z,25.60
2023-05-21T15:19:07.952Z,25.60
2023-05-21T15:21:35.704Z,25.60
2023-05-21T15:24:05.376Z,25.60
2023-05-21T15:26:33.120Z,25.60
2023-05-21T15:29:00.910Z,25.60
2023-05-21T15:31:28.677Z,25.60
2023-05-21T15:33:57.312Z,25.60
2023-05-21T15:36:26.778Z,25.60
2023-05-21T15:38:54.534Z,25.60
2023-05-21T15:41:23.617Z,25.60
2023-05-21T15:43:51.369Z,25.60
2023-05-21T15:46:19.172Z,25.60
2023-05-21T15:48:46.976Z,25.60
2023-05-21T15:51:14.754Z,25.60
2023-05-21T15:53:42.528Z,25.60
2023-05-21T15:56:10.323Z,25.60
2023-05-21T15:58:39.382Z,25.60
2023-05-21T16:01:07.219Z,25.60
2023-05-21T16:03:35.037Z,25.60
2023-05-21T16:06:04.200Z,25.60
2023-05-21T16:08:31.910Z,25.60
2023-05-21T16:10:59.687Z,25.60
2023-05-21T16:13:27.552Z,25.60
2023-05-21T16:15:56.615Z,25.60
2023-05-21T16:18:24.352Z,25.60
2023-05-21T16:20:52.129Z,25.60
2023-05-21T16:23:19.856Z,25.60
2023-05-21T16:25:47.683Z,25.60
2023-05-21T16:28:15.599Z,25.60
2023-05-21T16:30:43.460Z,25.60
2023-05-21T16:33:12.711Z,25.60
2023-05-21T16:35:40.489Z,25.60
2023-05-21T16:38:08.270Z,25.60
2023-05-21T16:40:36.426Z,25.60
2023-05-21T16:43:04.207Z,25.60
2023-05-21T16:45:40.088Z,25.70
2023-05-21T16:48:08.552Z,25.60
2023-05-21T16:50:37.683Z,25.60
2023-05-21T16:53:06.679Z,25.60
2023-05-21T16:55:35.704Z,25.60
2023-05-21T16:58:05.259Z,25.60
2023-05-21T17:00:34.263Z,25.60
2023-05-21T17:03:02.308Z,25.60
2023-05-21T17:05:30.207Z,25.60
2023-05-21T17:07:59.261Z,25.60
2023-05-21T17:10:27.466Z,25.70
2023-05-21T17:12:55.809Z,25.60
2023-05-21T17:15:24.927Z,25.70
2023-05-21T17:17:52.709Z,25.60
2023-05-21T17:20:20.545Z,25.70
2023-05-21T17:22:48.386Z,25.60
2023-05-21T17:25:17.525Z,25.60
2023-05-21T17:27:45.260Z,25.60
2023-05-21T17:30:13.695Z,25.70
2023-05-21T17:32:41.498Z,25.70
2023-05-21T17:35:10.413Z,25.70
2023-05-21T17:37:38.176Z,25.60
2023-05-21T17:40:07.054Z,25.70
2023-05-21T17:42:36.103Z,25.60
2023-05-21T17:45:04.008Z,25.60
2023-05-21T17:47:33.709Z,25.70
2023-05-21T17:50:01.475Z,25.70
2023-05-21T17:52:29.219Z,25.70
2023-05-21T17:54:56.998Z,25.60
2023-05-21T17:57:24.754Z,25.60
2023-05-21T17:59:55.028Z,25.60
2023-05-21T18:02:23.438Z,25.70
2023-05-21T18:04:51.264Z,25.70
2023-05-21T18:07:19.000Z,25.60
2023-05-21T18:09:46.741Z,25.70
2023-05-21T18:12:14.515Z,25.70
2023-05-21T18:14:42.256Z,25.70
2023-05-21T18:17:11.335Z,25.70
2023-05-21T18:19:39.234Z,25.70
2023-05-21T18:22:07.051Z,25.80
2023-05-21T18:24:36.337Z,25.80
2023-05-21T18:27:04.113Z,25.80
2023-05-21T18:29:31.873Z,25.80
2023-05-21T18:31:59.716Z,25.80
2023-05-21T18:34:28.825Z,25.80
2023-05-21T18:36:58.549Z,25.80
2023-05-21T18:39:27.751Z,25.80
2023-05-21T18:42:11.514Z,25.80
2023-05-21T18:44:41.117Z,25.90
2023-05-21T18:47:08.888Z,25.90
2023-05-21T18:49:37.955Z,25.90
2023-05-21T18:52:06.063Z,25.90
2023-05-21T18:54:33.873Z,25.90
2023-05-21T18:57:02.085Z,25.80
2023-05-21T18:59:31.231Z,25.90
2023-05-21T19:01:59.099Z,25.90
2023-05-21T19:04:27.315Z,25.90
2023-05-21T19:06:56.377Z,25.90
2023-05-21T19:09:24.176Z,25.90
2023-05-21T19:11:52.160Z,25.90
2023-05-21T19:14:20.969Z,25.90
2023-05-21T19:16:48.735Z,25.90
2023-05-21T19:19:16.597Z,25.90
2023-05-21T19:21:44.477Z,25.90
2023-05-21T19:24:13.603Z,25.90
2023-05-21T19:26:41.363Z,25.90
2023-05-21T19:29:09.496Z,25.90
2023-05-21T19:31:37.325Z,26.00
2023-05-21T19:34:10.362Z,25.90
2023-05-21T19:36:51.574Z,25.90
2023-05-21T19:39:21.819Z,25.90
2023-05-21T19:41:49.705Z,25.90
2023-05-21T19:44:17.425Z,25.90
2023-05-21T19:46:45.235Z,25.90
2023-05-21T19:49:14.435Z,25.90
2023-05-21T19:51:42.272Z,25.90
2023-05-21T19:54:09.990Z,25.90
2023-05-21T19:56:39.138Z,25.90
2023-05-21T19:59:06.994Z,25.90
2023-05-21T20:01:39.307Z,25.90
2023-05-21T20:04:07.560Z,25.90
2023-05-21T20:06:35.445Z,25.90
2023-05-21T20:09:03.190Z,25.90
2023-05-21T20:11:30.945Z,25.80
2023-05-21T20:14:01.961Z,25.80
2023-05-21T20:16:29.913Z,25.80
2023-05-21T20:18:58.205Z,25.80
2023-05-21T20:21:26.346Z,25.80
2023-05-21T20:23:54.651Z,25.80
2023-05-21T20:26:23.062Z,25.80
2023-05-21T20:28:50.834Z,25.80
2023-05-21T20:31:20.192Z,25.80
2023-05-21T20:33:50.353Z,25.80
2023-05-21T20:36:18.460Z,25.80
2023-05-21T20:38:47.087Z,25.80
2023-05-21T20:41:15.069Z,25.80
2023-05-21T20:43:45.158Z,25.80
2023-05-21T20:46:13.425Z,25.80
2023-05-21T20:48:43.463Z,25.80
2023-05-21T20:51:11.339Z,25.80
2023-05-21T20:53:39.138Z,25.80
2023-05-21T20:56:08.060Z,25.80
2023-05-21T20:58:36.210Z,25.70
2023-05-21T21:01:04.031Z,25.70
2023-05-21T21:03:34.182Z,25.70
2023-05-21T21:06:04.180Z,25.70
2023-05-21T21:08:32.003Z,25.70
2023-05-21T21:10:59.750Z,25.70
2023-05-21T21:13:27.531Z,25.70
2023-05-21T21:15:55.409Z,25.70
2023-05-21T21:18:23.182Z,25.70
2023-05-21T21:20:51.211Z,25.70
2023-05-21T21:23:20.326Z,25.70
2023-05-21T21:25:48.087Z,25.70
2023-05-21T21:28:15.880Z,25.70
2023-05-21T21:30:44.144Z,25.70
2023-05-21T21:33:14.088Z,25.70
2023-05-21T21:35:42.977Z,25.70
2023-05-21T21:38:10.861Z,25.70
2023-05-21T21:40:40.170Z,25.60
2023-05-21T21:43:08.120Z,25.60
2023-05-21T21:45:36.316Z,25.60
2023-05-21T21:48:04.135Z,25.70
2023-05-21T21:50:31.888Z,25.60
2023-05-21T21:52:59.828Z,25.60
2023-05-21T21:55:27.730Z,25.60
2023-05-21T21:57:56.781Z,25.60
2023-05-21T22:00:26.670Z,25.60
2023-05-21T22:02:54.750Z,25.60
2023-05-21T22:05:22.752Z,25.60
2023-05-21T22:07:52.447Z,25.60
2023-05-21T22:10:20.321Z,25.60
2023-05-21T22:12:48.129Z,25.60
2023-05-21T22:15:22.813Z,25.60
2023-05-21T22:17:51.610Z,25.60
2023-05-21T22:20:20.018Z,25.60
2023-05-21T22:22:47.753Z,25.60
2023-05-21T22:25:15.622Z,25.60
2023-05-21T22:27:43.580Z,25.60
2023-05-21T22:30:12.165Z,25.60
2023-05-21T22:32:41.666Z,25.60
2023-05-21T22:35:10.239Z,25.60
2023-05-21T22:37:38.155Z,25.60
2023-05-21T22:40:07.200Z,25.60
2023-05-21T22:42:36.237Z,25.60
2023-05-21T22:45:04.638Z,25.60
2023-05-21T22:47:32.538Z,25.60
2023-05-21T22:50:04.233Z,25.60
2023-05-21T22:52:32.340Z,25.60
2023-05-21T22:55:00.684Z,25.60
2023-05-21T22:57:28.525Z,25.60
2023-05-21T22:59:56.262Z,25.50
2023-05-21T23:02:24.441Z,25.50
2023-05-21T23:04:52.197Z,25.60
2023-05-21T23:07:21.437Z,25.50
2023-05-21T23:09:51.539Z,25.50
2023-05-21T23:12:19.281Z,25.50
2023-05-21T23:14:48.062Z,25.50
2023-05-21T23:17:15.885Z,25.50
2023-05-21T23:19:43.696Z,25.50
2023-05-21T23:22:11.451Z,25.50
2023-05-21T23:24:40.564Z,25.50
2023-05-21T23:27:08.335Z,25.50
2023-05-21T23:29:36.064Z,25.50
2023-05-21T23:32:05.126Z,25.50
2023-05-21T23:34:33.356Z,25.50
2023-05-21T23:37:01.110Z,25.50
2023-05-21T23:39:29.028Z,25.50
2023-05-21T23:41:58.133Z,25.50
2023-05-21T23:44:26.174Z,25.50
2023-05-21T23:46:53.954Z,25.50
2023-05-21T23:49:21.716Z,25.50
2023-05-21T23:51:50.868Z,25.50
2023-05-21T23:54:18.740Z,25.50
2023-05-21T23:56:46.734Z,25.50
2023-05-21T23:59:18.339Z,25.50
